Time;durP1;ratioP1;P1;durP2;ratioP2;P2;SDS_P1;SDS_P2;PMS_P1;PMS_P2;Temp;Humidity;BMP_temperature;BMP_pressure;BME280_temperature;BME280_humidity;BME280_pressure;Samples;Min_cycle;Max_cycle;Signal;HPM_P1;HPM_P2
2023/10/10 00:04:41;;;;;;;5.65;3.22;;;;;;;-1.79;94.82;100527.19;10498152;28;20044;-91
2023/10/10 00:09:45;;;;;;;4.20;2.60;;;;;;;-1.84;95.08;100530.50;10475211;28;20041;-91
2023/10/10 00:14:50;;;;;;;5.68;2.95;;;;;;;-1.85;94.99;100534.22;10471369;28;20037;-91
2023/10/10 00:19:54;;;;;;;5.65;2.65;;;;;;;-1.84;95.53;100543.97;10471469;28;20045;-91
2023/10/10 00:24:56;;;;;;;5.20;2.95;;;;;;;-1.82;95.26;100546.44;10428154;28;20237;-91
2023/10/10 00:30:00;;;;;;;5.03;2.95;;;;;;;-1.83;95.43;100558.22;10504155;28;20058;-92
2023/10/10 00:35:03;;;;;;;5.18;3.00;;;;;;;-1.83;95.62;100563.63;10495415;28;20043;-91
2023/10/10 00:40:08;;;;;;;5.32;2.78;;;;;;;-1.84;95.37;100572.72;10463149;28;20053;-92
2023/10/10 00:45:12;;;;;;;3.95;2.67;;;;;;;-1.84;95.73;100572.72;10469911;28;20032;-92
2023/10/10 00:50:17;;;;;;;4.43;2.60;;;;;;;-1.91;95.99;100575.41;10493027;28;20047;-91
2023/10/10 00:55:24;;;;;;;4.63;2.50;;;;;;;-1.88;95.58;100574.97;10504472;28;20047;-90
2023/10/10 01:00:30;;;;;;;3.58;2.50;;;;;;;-1.88;95.83;100579.53;10480240;28;20044;-91
2023/10/10 01:05:52;;;;;;;5.57;2.47;;;;;;;-1.93;95.69;100579.28;10463295;28;20036;-91
2023/10/10 01:11:02;;;;;;;4.25;2.17;;;;;;;-1.97;95.54;100586.09;10481510;28;20052;-91
2023/10/10 01:16:05;;;;;;;2.55;1.70;;;;;;;-1.96;95.67;100585.91;10463293;28;20047;-91
2023/10/10 01:21:09;;;;;;;3.28;2.10;;;;;;;-1.96;96.23;100595.81;10478589;28;20052;-91
2023/10/10 01:26:11;;;;;;;4.15;1.70;;;;;;;-1.93;96.32;100607.00;10453757;28;20055;-91
2023/10/10 01:31:17;;;;;;;3.83;1.85;;;;;;;-1.95;96.28;100600.16;10463860;28;20036;-92
2023/10/10 01:36:20;;;;;;;2.67;1.85;;;;;;;-1.92;96.48;100615.91;10495102;28;20049;-91
2023/10/10 01:41:30;;;;;;;3.85;2.40;;;;;;;-1.93;96.28;100625.00;10491617;28;20459;-92
2023/10/10 01:46:34;;;;;;;5.00;2.40;;;;;;;-1.95;96.60;100627.06;10464260;28;20048;-92
2023/10/10 01:51:42;;;;;;;5.55;2.40;;;;;;;-1.91;96.50;100634.56;10471754;28;20044;-91
2023/10/10 01:56:45;;;;;;;4.20;2.20;;;;;;;-1.96;96.68;100633.47;10473980;28;20044;-91
2023/10/10 02:01:48;;;;;;;4.80;2.17;;;;;;;-2.03;96.59;100643.38;10478942;28;20503;-90
2023/10/10 02:06:56;;;;;;;5.38;2.25;;;;;;;-2.04;96.39;100647.94;10509989;28;20043;-92
2023/10/10 02:12:08;;;;;;;4.50;2.20;;;;;;;-2.08;96.85;100657.41;10469004;28;20032;-92
2023/10/10 02:17:25;;;;;;;4.32;2.35;;;;;;;-2.08;96.96;100651.19;10446444;28;20487;-91
2023/10/10 02:22:33;;;;;;;4.70;2.47;;;;;;;-2.09;96.94;100660.28;10473885;28;20049;-91
2023/10/10 02:27:53;;;;;;;2.53;1.92;;;;;;;-2.14;96.83;100661.72;10484730;28;20041;-91
2023/10/10 02:32:57;;;;;;;3.45;1.83;;;;;;;-2.18;97.26;100662.31;10469259;28;20516;-91
2023/10/10 02:38:04;;;;;;;3.13;1.98;;;;;;;-2.17;97.61;100647.84;10469778;28;20048;-91
2023/10/10 02:43:33;;;;;;;2.50;1.65;;;;;;;-2.19;97.84;100668.72;10492500;28;20049;-91
2023/10/10 02:48:41;;;;;;;3.88;2.47;;;;;;;-2.20;97.75;100670.56;10487704;28;20047;-90
2023/10/10 02:53:47;;;;;;;9.68;4.07;;;;;;;-2.17;98.15;100667.47;10470448;28;20043;-90
2023/10/10 02:58:54;;;;;;;4.95;3.40;;;;;;;-2.15;97.91;100673.50;10473063;28;20526;-90
2023/10/10 03:03:56;;;;;;;5.82;3.75;;;;;;;-2.14;98.10;100671.63;10452141;28;20037;-90
2023/10/10 03:09:12;;;;;;;5.70;3.47;;;;;;;-2.15;98.34;100670.81;10480869;28;20059;-90
2023/10/10 03:14:25;;;;;;;5.60;3.65;;;;;;;-2.15;98.05;100672.66;10471799;28;20047;-91
2023/10/10 03:19:37;;;;;;;5.95;3.88;;;;;;;-2.17;97.79;100677.41;10439817;28;20045;-91
2023/10/10 03:25:03;;;;;;;4.18;2.63;;;;;;;-2.22;97.71;100675.31;10441850;28;20049;-91
2023/10/10 05:28:06;;;;;;;3.10;2.03;;;;;;;0.21;91.44;100754.19;10490894;28;20064;-90
2023/10/10 05:33:12;;;;;;;5.40;2.40;;;;;;;0.50;89.53;100760.13;10485787;28;20045;-90
2023/10/10 05:38:15;;;;;;;6.28;2.60;;;;;;;0.80;88.25;100758.59;10451570;28;20053;-90
2023/10/10 05:43:26;;;;;;;6.47;2.80;;;;;;;1.36;87.08;100763.28;10485288;28;20040;-91
2023/10/10 05:48:31;;;;;;;4.20;2.30;;;;;;;2.67;81.63;100759.63;10484245;28;20052;-91
2023/10/10 05:53:33;;;;;;;6.15;2.42;;;;;;;2.68;79.81;100755.84;10484943;28;20062;-91
2023/10/10 05:58:35;;;;;;;4.47;2.42;;;;;;;5.00;72.40;100759.13;10484500;28;20048;-92
2023/10/10 06:03:41;;;;;;;3.65;1.70;;;;;;;4.77;68.78;100753.78;10520985;28;20144;-91
2023/10/10 06:08:44;;;;;;;3.20;1.90;;;;;;;4.69;68.50;100754.16;10500816;28;20037;-92
2023/10/10 06:13:47;;;;;;;3.92;2.08;;;;;;;4.74;69.43;100765.13;10477941;28;20037;-91
2023/10/10 06:18:53;;;;;;;4.07;2.40;;;;;;;4.03;69.89;100774.38;10478080;28;20043;-92
2023/10/10 06:23:55;;;;;;;5.30;2.47;;;;;;;4.33;72.34;100783.22;10482190;28;20041;-91
2023/10/10 06:28:59;;;;;;;6.90;2.60;;;;;;;4.18;71.35;100789.16;10458193;28;20045;-91
2023/10/10 06:34:19;;;;;;;4.90;3.28;;;;;;;5.89;65.28;100774.91;10500152;28;20052;-92
2023/10/10 06:39:32;;;;;;;6.22;3.00;;;;;;;6.57;62.69;100782.81;10473287;28;20551;-90
2023/10/10 06:44:35;;;;;;;6.45;3.53;;;;;;;7.00;61.76;100785.84;10443246;28;20055;-92
2023/10/10 06:49:46;;;;;;;8.60;3.42;;;;;;;6.94;61.16;100788.53;10428885;28;20036;-91
2023/10/10 06:54:55;;;;;;;6.88;3.60;;;;;;;7.75;58.94;100798.69;10482164;28;20052;-91
2023/10/10 06:59:58;;;;;;;6.43;3.67;;;;;;;7.59;59.09;100800.44;10482185;28;20048;-92
2023/10/10 07:05:05;;;;;;;8.88;3.83;;;;;;;7.85;56.75;100804.25;10494267;28;20044;-92
2023/10/10 07:10:09;;;;;;;5.45;3.53;;;;;;;7.89;58.58;100805.38;10434900;28;20045;-93
2023/10/10 07:15:14;;;;;;;6.38;3.65;;;;;;;7.90;57.50;100817.94;10480530;28;20036;-92
2023/10/10 07:25:43;;;;;;;6.38;3.90;;;;;;;8.28;57.63;100821.56;10487035;28;20049;-92
2023/10/10 07:30:50;;;;;;;5.68;2.80;;;;;;;8.42;57.25;100820.88;10468989;28;20044;-92
2023/10/10 07:35:55;;;;;;;4.63;2.30;;;;;;;8.48;56.21;100834.59;10467943;28;20036;-93
2023/10/10 07:40:58;;;;;;;4.65;2.42;;;;;;;9.35;54.28;100840.28;10468887;28;20052;-92
2023/10/10 07:46:22;;;;;;;2.95;1.92;;;;;;;9.28;54.55;100839.72;10488955;28;20083;-92
2023/10/10 07:51:29;;;;;;;2.05;1.88;;;;;;;9.25;54.71;100839.44;10530548;28;20146;-93
2023/10/10 07:56:32;;;;;;;2.88;1.90;;;;;;;9.66;52.73;100851.34;10457053;28;20041;-92
2023/10/10 08:01:37;;;;;;;2.38;1.70;;;;;;;9.70;51.81;100854.34;10461151;28;20044;-92
2023/10/10 08:06:47;;;;;;;2.13;1.50;;;;;;;10.52;49.42;100856.94;10468834;28;20031;-92
2023/10/10 08:11:55;;;;;;;2.65;1.63;;;;;;;9.76;49.76;100858.78;10530016;28;20044;-92
2023/10/10 08:17:02;;;;;;;5.78;1.58;;;;;;;9.83;51.66;100868.38;10483107;28;20043;-92
2023/10/10 08:22:12;;;;;;;3.03;1.70;;;;;;;9.64;52.17;100868.06;10463630;28;20055;-92
2023/10/10 08:27:14;;;;;;;3.53;1.65;;;;;;;8.08;54.71;100887.81;10497152;28;20052;-92
2023/10/10 08:32:17;;;;;;;2.88;1.20;;;;;;;8.41;53.47;100882.13;10521922;28;20049;-92
2023/10/10 08:37:20;;;;;;;1.75;1.52;;;;;;;6.34;58.31;100876.50;10460850;28;20045;-91
2023/10/10 08:42:23;;;;;;;3.30;1.60;;;;;;;4.33;66.77;100893.78;10509537;28;20043;-92
2023/10/10 08:47:33;;;;;;;2.40;1.80;;;;;;;3.72;69.20;100894.91;10476516;28;20526;-92
2023/10/10 08:52:40;;;;;;;3.38;1.88;;;;;;;3.39;71.52;100903.47;10466449;28;20036;-93
2023/10/10 08:57:43;;;;;;;3.33;2.35;;;;;;;3.40;71.69;100895.13;10480669;28;20043;-93
2023/10/10 09:02:45;;;;;;;4.13;2.50;;;;;;;3.15;73.17;100906.06;10447103;28;20053;-92
2023/10/10 09:07:48;;;;;;;2.53;1.80;;;;;;;3.36;73.12;100904.78;10503944;28;20044;-93
2023/10/10 09:12:56;;;;;;;3.70;2.13;;;;;;;3.31;72.49;100908.16;10480644;28;20032;-94
2023/10/10 09:18:17;;;;;;;3.75;1.95;;;;;;;3.36;72.53;100909.38;10497606;28;20043;-94
2023/10/10 09:23:26;;;;;;;2.83;1.70;;;;;;;3.48;72.50;100912.97;10495955;28;20040;-91
2023/10/10 09:28:43;;;;;;;2.88;1.63;;;;;;;3.64;72.45;100901.47;10493639;28;20052;-91
2023/10/10 09:33:46;;;;;;;3.67;1.80;;;;;;;3.62;71.53;100906.31;10493508;28;20473;-93
2023/10/10 09:38:54;;;;;;;2.38;1.50;;;;;;;3.52;72.22;100908.75;10495923;28;20048;-90
2023/10/10 09:44:27;;;;;;;2.85;1.50;;;;;;;3.66;72.03;100912.94;10501806;28;20044;-91
2023/10/10 09:49:30;;;;;;;2.80;1.55;;;;;;;3.65;72.84;100908.59;10518270;28;20449;-91
2023/10/10 09:54:35;;;;;;;2.72;1.58;;;;;;;3.90;71.98;100914.69;10534703;28;20030;-90
2023/10/10 09:59:37;;;;;;;4.20;1.50;;;;;;;3.96;72.28;100912.94;10516581;28;20079;-91
2023/10/10 10:04:44;;;;;;;2.92;1.85;;;;;;;3.96;72.70;100914.81;10499776;28;20036;-90
2023/10/10 10:10:09;;;;;;;3.15;1.63;;;;;;;4.24;71.90;100898.75;10533252;28;20036;-91
2023/10/10 10:15:24;;;;;;;1.48;1.20;;;;;;;4.30;72.37;100900.50;10494846;28;20410;-91
2023/10/10 10:26:04;;;;;;;2.45;1.20;;;;;;;4.23;72.37;100906.06;10510549;28;20037;-95
2023/10/10 10:31:28;;;;;;;2.97;1.23;;;;;;;4.36;71.46;100906.91;10525747;28;20142;-94
2023/10/10 10:36:41;;;;;;;2.95;1.30;;;;;;;4.63;72.00;100919.00;10489364;28;20065;-94
2023/10/10 10:41:51;;;;;;;2.05;1.13;;;;;;;4.68;72.04;100908.22;10545956;28;20620;-94
2023/10/10 10:46:56;;;;;;;1.00;0.90;;;;;;;4.77;70.86;100917.72;10457820;28;20041;-94
2023/10/10 10:52:17;;;;;;;1.63;1.02;;;;;;;4.65;70.91;100916.88;10515672;28;20040;-88
2023/10/10 10:57:27;;;;;;;1.48;1.30;;;;;;;4.74;70.25;100914.63;10529572;28;20040;-90
2023/10/10 11:02:30;;;;;;;2.50;0.93;;;;;;;4.68;70.74;100921.81;10506262;28;20147;-89
2023/10/10 11:07:41;;;;;;;1.23;1.00;;;;;;;4.89;70.46;100925.88;10513679;28;20039;-91
2023/10/10 11:12:48;;;;;;;1.63;1.00;;;;;;;5.09;70.28;100928.22;10487644;28;20449;-91
2023/10/10 11:18:07;;;;;;;2.25;1.27;;;;;;;5.04;69.32;100926.22;10504399;28;20044;-85
2023/10/10 11:23:14;;;;;;;1.35;1.10;;;;;;;5.06;69.50;100934.97;10488127;28;20048;-90
2023/10/10 11:28:24;;;;;;;1.83;1.00;;;;;;;5.14;69.24;100941.94;10465967;28;20043;-87
2023/10/10 11:34:10;;;;;;;1.20;1.10;;;;;;;5.06;69.01;100932.25;10505915;28;20414;-88
2023/10/10 11:39:15;;;;;;;1.40;1.00;;;;;;;4.97;69.27;100930.94;10502324;28;20407;-89
2023/10/10 11:44:19;;;;;;;1.38;1.27;;;;;;;5.01;69.64;100926.69;10520107;28;20049;-86
2023/10/10 11:49:21;;;;;;;0.80;0.73;;;;;;;4.99;69.01;100927.97;10499676;28;20047;-88
2023/10/10 11:54:25;;;;;;;0.70;0.68;;;;;;;5.02;68.85;100925.59;10505950;28;20046;-88
2023/10/10 11:59:27;;;;;;;2.17;1.10;;;;;;;4.98;68.42;100924.44;10523335;28;20054;-88
2023/10/10 12:04:30;;;;;;;0.65;0.65;;;;;;;4.90;68.70;100924.81;10501616;28;20043;-87
2023/10/10 12:09:34;;;;;;;1.20;0.80;;;;;;;4.98;68.31;100924.44;10523847;28;20032;-86
2023/10/10 12:14:36;;;;;;;1.50;0.90;;;;;;;5.04;67.74;100928.13;10544872;28;20511;-87
2023/10/10 12:19:43;;;;;;;0.55;0.55;;;;;;;4.91;67.05;100926.47;10496616;28;20047;-85
2023/10/10 12:24:47;;;;;;;0.68;0.63;;;;;;;4.90;67.98;100919.38;10547242;28;20136;-85
2023/10/10 12:29:49;;;;;;;1.08;0.70;;;;;;;4.99;67.93;100920.66;10536290;28;20046;-85
2023/10/10 12:34:52;;;;;;;1.65;0.80;;;;;;;5.06;68.02;100918.66;10513052;28;20033;-84
2023/10/10 12:39:55;;;;;;;1.02;0.80;;;;;;;5.01;67.68;100914.97;10537232;28;20051;-85
2023/10/10 12:45:01;;;;;;;0.77;0.60;;;;;;;4.99;67.46;100908.94;10501685;28;20056;-85
2023/10/10 12:50:04;;;;;;;0.52;0.52;;;;;;;5.01;66.81;100915.78;10505637;28;20491;-86
2023/10/10 12:55:09;;;;;;;0.85;0.70;;;;;;;4.91;65.76;100912.88;10507318;28;20047;-87
2023/10/10 13:00:24;;;;;;;0.75;0.57;;;;;;;4.88;66.49;100909.81;10538069;28;20043;-87
2023/10/10 13:05:29;;;;;;;0.50;0.40;;;;;;;4.94;65.81;100909.66;10509899;28;20048;-88
2023/10/10 13:10:37;;;;;;;3.05;1.13;;;;;;;4.92;65.14;100910.97;10526717;28;20044;-88
2023/10/10 13:15:50;;;;;;;1.10;0.80;;;;;;;4.90;66.15;100910.38;10517157;28;20044;-87
2023/10/10 13:20:53;;;;;;;0.88;0.82;;;;;;;4.94;66.39;100909.66;10520616;28;20071;-89
2023/10/10 13:25:57;;;;;;;2.47;1.13;;;;;;;4.98;65.69;100913.56;10491309;28;20828;-88
2023/10/10 13:31:02;;;;;;;1.15;0.98;;;;;;;4.89;66.61;100917.72;10501214;28;20043;-89
2023/10/10 13:36:04;;;;;;;1.15;0.85;;;;;;;4.99;66.45;100917.94;10487712;28;20037;-87
2023/10/10 13:41:08;;;;;;;2.60;1.27;;;;;;;4.98;66.44;100913.56;10478804;28;20053;-90
2023/10/10 13:46:11;;;;;;;3.63;1.60;;;;;;;5.02;66.60;100919.34;10540341;28;20352;-87
2023/10/10 13:51:14;;;;;;;3.97;1.92;;;;;;;4.99;66.71;100912.50;10504869;28;20036;-87
2023/10/10 13:56:19;;;;;;;3.88;2.40;;;;;;;4.98;67.29;100905.41;10498741;28;20035;-88
2023/10/10 14:01:36;;;;;;;5.90;2.60;;;;;;;5.04;67.82;100901.75;10525482;28;20047;-89
2023/10/10 14:06:45;;;;;;;9.90;2.03;;;;;;;5.13;67.37;100897.59;10520294;28;20060;-96
2023/10/10 14:12:02;;;;;;;4.20;2.10;;;;;;;5.10;69.50;100900.78;10481722;28;20037;-94
2023/10/10 14:17:09;;;;;;;3.00;1.88;;;;;;;5.13;69.85;100891.31;10488873;28;20033;-95
2023/10/10 14:29:41;;;;;;;5.05;2.38;;;;;;;5.02;71.33;100892.16;10539686;28;20128;-95
2023/10/10 14:34:45;;;;;;;11.23;2.20;;;;;;;5.03;70.88;100881.06;10497305;28;20163;-92
2023/10/10 14:39:51;;;;;;;4.65;2.15;;;;;;;4.92;70.69;100883.78;10500073;28;20578;-94
2023/10/10 14:44:53;;;;;;;3.25;2.00;;;;;;;4.82;70.21;100881.66;10481577;28;20046;-92
2023/10/10 14:50:06;;;;;;;3.22;1.90;;;;;;;4.78;70.21;100883.19;10503770;28;20078;-93
2023/10/10 14:55:23;;;;;;;3.13;1.38;;;;;;;4.66;69.85;100888.63;10503417;28;20031;-94
2023/10/10 15:00:28;;;;;;;1.98;1.23;;;;;;;4.66;68.45;100874.19;10490682;28;20047;-91
2023/10/10 15:05:32;;;;;;;1.42;1.20;;;;;;;4.63;67.70;100875.50;10502772;28;20044;-92
2023/10/10 15:10:40;;;;;;;2.47;1.20;;;;;;;4.56;66.87;100868.53;10473484;28;20040;-93
2023/10/10 15:15:48;;;;;;;6.82;1.13;;;;;;;4.52;66.25;100885.31;10487236;28;20036;-88
2023/10/10 15:20:50;;;;;;;3.25;1.45;;;;;;;4.53;66.17;100876.09;10509601;28;20060;-95
2023/10/10 15:25:53;;;;;;;2.35;1.20;;;;;;;4.53;65.88;100873.38;10497424;28;20054;-95
2023/10/10 15:31:00;;;;;;;;;;;;;;;4.60;66.11;100870.53;10499182;28;20131;-91
2023/10/10 15:36:06;;;;;;;5.97;1.58;;;;;;;4.66;65.39;100864.16;10546131;28;20381;-93
2023/10/10 15:41:19;;;;;;;3.20;1.60;;;;;;;4.67;65.64;100865.81;10507837;28;20056;-90
2023/10/10 15:46:25;;;;;;;3.55;1.73;;;;;;;4.77;65.93;100870.66;10505890;28;20032;-88
2023/10/10 15:51:37;;;;;;;4.03;2.22;;;;;;;4.88;66.01;100869.84;10484836;28;20056;-88
2023/10/10 15:56:40;;;;;;;6.18;2.45;;;;;;;4.94;67.00;100865.34;10508416;28;20127;-89
2023/10/10 16:01:46;;;;;;;6.57;2.72;;;;;;;4.92;68.21;100871.00;10493835;28;20047;-89
2023/10/10 16:06:50;;;;;;;5.90;2.50;;;;;;;4.93;67.98;100867.22;10471792;28;20036;-90
2023/10/10 16:11:53;;;;;;;4.97;2.70;;;;;;;4.94;69.13;100870.78;10443132;28;20045;-90
2023/10/10 16:16:55;;;;;;;3.40;2.55;;;;;;;4.96;69.30;100868.63;10505584;28;20046;-90
2023/10/10 16:21:59;;;;;;;4.53;2.20;;;;;;;5.02;70.64;100870.38;10465793;28;20521;-89
2023/10/10 16:27:04;;;;;;;8.25;2.50;;;;;;;5.02;71.16;100873.94;10494701;28;20037;-89
2023/10/10 16:32:07;;;;;;;6.50;2.25;;;;;;;4.98;72.63;100866.50;10461899;28;20062;-88
2023/10/10 16:37:17;;;;;;;6.43;1.95;;;;;;;5.00;73.87;100859.75;10494076;28;20036;-89
2023/10/10 16:42:23;;;;;;;4.88;2.05;;;;;;;5.10;74.79;100853.72;10481415;28;20147;-88
2023/10/10 16:47:27;;;;;;;4.00;1.50;;;;;;;5.17;75.17;100845.41;10496724;28;20542;-89
2023/10/10 16:52:29;;;;;;;7.07;2.28;;;;;;;5.17;75.40;100840.78;10478773;28;20131;-88
2023/10/10 16:57:35;;;;;;;4.70;1.52;;;;;;;5.24;75.85;100836.06;10511760;28;20469;-88
2023/10/10 17:02:39;;;;;;;3.20;1.50;;;;;;;5.29;75.55;100829.88;10492455;28;20047;-88
2023/10/10 17:07:42;;;;;;;3.58;1.58;;;;;;;5.27;76.03;100823.88;10495132;28;20047;-87
2023/10/10 17:12:44;;;;;;;6.43;2.33;;;;;;;5.26;76.54;100824.94;10494459;28;20521;-87
2023/10/10 17:17:47;;;;;;;2.17;1.40;;;;;;;5.29;76.39;100828.00;10502442;28;20036;-89
2023/10/10 17:22:50;;;;;;;2.80;1.83;;;;;;;5.29;76.23;100822.56;10465636;28;20043;-87
2023/10/10 17:27:52;;;;;;;2.58;1.58;;;;;;;5.23;76.43;100825.44;10494643;28;20040;-89
2023/10/10 17:32:54;;;;;;;2.00;1.40;;;;;;;5.28;75.71;100822.81;10479824;28;20051;-88
2023/10/10 17:37:57;;;;;;;2.22;1.05;;;;;;;5.26;75.79;100814.88;10475391;28;20041;-88
2023/10/10 17:43:00;;;;;;;2.03;1.30;;;;;;;5.26;75.76;100824.94;10507117;28;20466;-89
2023/10/10 17:48:06;;;;;;;1.67;1.30;;;;;;;5.24;74.76;100822.47;10470777;28;20062;-93
2023/10/10 17:53:12;;;;;;;2.75;1.40;;;;;;;5.33;74.89;100820.16;10463192;28;20033;-90
2023/10/10 17:58:14;;;;;;;1.75;1.10;;;;;;;5.30;75.43;100818.75;10519084;28;20041;-86
2023/10/10 18:03:17;;;;;;;2.40;1.10;;;;;;;5.33;74.52;100814.72;10510252;28;20495;-92
2023/10/10 18:08:19;;;;;;;2.67;1.23;;;;;;;5.30;74.51;100821.47;10503292;28;20045;-93
2023/10/10 18:13:22;;;;;;;1.85;1.10;;;;;;;5.34;74.30;100819.94;10527650;28;20036;-94
2023/10/10 18:18:28;;;;;;;1.95;1.05;;;;;;;5.33;74.55;100814.72;10512511;28;20050;-94
2023/10/10 18:23:42;;;;;;;1.90;0.98;;;;;;;5.33;74.31;100817.44;10479322;28;20524;-84
2023/10/10 18:28:44;;;;;;;2.35;1.60;;;;;;;5.46;74.16;100806.28;10478322;28;20048;-85
2023/10/10 18:33:47;;;;;;;3.03;1.10;;;;;;;5.36;74.42;100814.25;10490924;28;20041;-91
2023/10/10 18:38:50;;;;;;;3.03;1.00;;;;;;;5.44;75.05;100813.88;10467964;28;20057;-87
2023/10/10 18:43:53;;;;;;;3.00;1.30;;;;;;;5.44;76.14;100805.72;10485648;28;20044;-94
2023/10/10 18:48:57;;;;;;;3.78;1.50;;;;;;;5.33;76.98;100792.97;10497447;28;20114;-86
2023/10/10 18:54:04;;;;;;;3.33;1.30;;;;;;;5.30;77.38;100788.00;10510984;28;20441;-92
2023/10/10 18:59:07;;;;;;;2.13;1.20;;;;;;;5.20;77.96;100790.53;10501165;28;20028;-94
2023/10/10 19:04:13;;;;;;;2.22;1.20;;;;;;;5.20;77.90;100772.31;10534493;28;20044;-90
2023/10/10 19:09:17;;;;;;;1.85;1.17;;;;;;;5.14;77.93;100774.09;10534083;28;20042;-94
2023/10/10 19:14:20;;;;;;;2.42;1.38;;;;;;;5.12;77.92;100778.97;10507292;28;20122;-92
2023/10/10 19:19:22;;;;;;;2.42;0.90;;;;;;;5.10;78.22;100778.38;10459748;28;20032;-89
2023/10/10 19:24:26;;;;;;;3.85;1.20;;;;;;;5.10;78.46;100762.06;10499246;28;20543;-88
2023/10/10 19:29:29;;;;;;;3.20;1.55;;;;;;;5.07;78.40;100768.00;10494627;28;20051;-88
2023/10/10 19:34:33;;;;;;;1.98;1.15;;;;;;;5.05;78.06;100761.16;10470192;28;20036;-90
2023/10/10 19:39:39;;;;;;;2.27;0.83;;;;;;;5.09;78.53;100759.59;10464250;28;20526;-85
2023/10/10 19:44:41;;;;;;;4.57;1.30;;;;;;;5.01;78.79;100749.06;10518578;28;20045;-93
2023/10/10 19:49:46;;;;;;;2.05;1.00;;;;;;;5.03;79.15;100752.38;10463018;28;20064;-90
2023/10/10 19:55:10;;;;;;;1.55;1.20;;;;;;;5.02;79.13;100740.69;10505225;28;20414;-88
2023/10/10 20:00:22;;;;;;;2.63;1.00;;;;;;;5.04;78.74;100726.88;10473788;28;20033;-86
2023/10/10 20:05:24;;;;;;;1.90;0.82;;;;;;;5.02;79.31;100737.97;10494776;28;20507;-87
2023/10/10 20:10:28;;;;;;;1.83;0.90;;;;;;;5.02;79.78;100729.78;10513696;28;20043;-90
2023/10/10 20:15:30;;;;;;;2.20;1.05;;;;;;;5.04;79.56;100716.81;10499674;28;20507;-89
2023/10/10 20:20:32;;;;;;;0.88;0.80;;;;;;;5.04;79.37;100718.72;10477758;28;20419;-92
2023/10/10 20:25:39;;;;;;;1.15;0.70;;;;;;;5.09;79.85;100710.63;10503111;23;20063;-68
2023/10/10 20:30:43;;;;;;;1.60;0.90;;;;;;;5.13;78.97;100701.72;10560505;28;20554;-67
2023/10/10 20:35:45;;;;;;;1.42;0.70;;;;;;;5.13;79.72;100696.28;10553022;28;20043;-67
2023/10/10 20:40:48;;;;;;;1.55;0.80;;;;;;;5.15;79.40;100687.88;10468749;28;20058;-73
2023/10/10 20:45:50;;;;;;;4.70;1.13;;;;;;;5.12;79.58;100683.75;10498952;28;20040;-74
2023/10/10 20:50:52;;;;;;;1.30;1.00;;;;;;;5.11;79.36;100692.16;10484616;28;20036;-73
2023/10/10 20:55:55;;;;;;;1.95;1.20;;;;;;;5.13;80.27;100712.63;10509661;28;20040;-72
2023/10/10 21:00:57;;;;;;;2.85;0.77;;;;;;;5.10;80.03;100702.22;10480091;28;20045;-74
2023/10/10 21:06:00;;;;;;;0.98;0.77;;;;;;;5.09;80.79;100678.81;10484933;28;20048;-75
2023/10/10 21:11:09;;;;;;;2.17;1.00;;;;;;;5.17;81.73;100658.53;10501578;28;20033;-76
2023/10/10 21:16:15;;;;;;;4.50;1.00;;;;;;;5.31;80.36;100659.06;10502325;28;20040;-75
2023/10/10 21:21:21;;;;;;;0.90;0.90;;;;;;;5.31;80.60;100642.75;10499214;28;20043;-73
2023/10/10 21:26:23;;;;;;;3.25;1.33;;;;;;;5.30;81.57;100643.81;10463046;28;20132;-74
2023/10/10 21:31:26;;;;;;;1.27;1.00;;;;;;;5.31;81.10;100638.13;10457842;28;20041;-71
2023/10/10 21:36:28;;;;;;;1.73;0.75;;;;;;;5.23;81.92;100645.88;10455356;28;20056;-74
2023/10/10 21:41:30;;;;;;;3.15;0.77;;;;;;;5.06;82.49;100649.41;10454585;28;20032;-72
2023/10/10 21:46:32;;;;;;;1.20;0.70;;;;;;;5.05;82.95;100650.47;10461707;28;20044;-74
2023/10/10 21:51:34;;;;;;;1.33;0.90;;;;;;;5.07;84.25;100648.31;10454073;28;20034;-74
2023/10/10 21:56:37;;;;;;;2.20;0.70;;;;;;;5.10;84.46;100644.28;10474036;23;20044;-74
2023/10/10 22:01:41;;;;;;;1.55;0.88;;;;;;;5.11;85.13;100635.88;10533988;28;20040;-73
2023/10/10 22:06:45;;;;;;;1.85;0.95;;;;;;;5.07;85.72;100634.72;10564885;28;20047;-73
2023/10/10 22:11:47;;;;;;;1.73;0.82;;;;;;;5.10;85.64;100614.38;10568890;22;20035;-70
2023/10/10 22:16:50;;;;;;;0.93;0.63;;;;;;;5.12;85.28;100629.38;10519053;28;20397;-73
2023/10/10 22:21:52;;;;;;;0.98;0.77;;;;;;;5.13;86.17;100608.44;10518054;28;20499;-72
2023/10/10 22:26:55;;;;;;;1.38;0.85;;;;;;;5.12;85.16;100604.06;10541351;22;20094;-69
2023/10/10 22:31:58;;;;;;;0.88;0.77;;;;;;;5.07;85.82;100598.53;10492678;28;20037;-71
2023/10/10 22:37:02;;;;;;;1.15;0.70;;;;;;;5.07;86.15;100606.72;10479467;28;20101;-70
2023/10/10 22:42:04;;;;;;;1.15;0.73;;;;;;;5.04;85.74;100594.44;10504825;28;20033;-72
2023/10/10 22:47:07;;;;;;;0.98;0.88;;;;;;;5.03;85.71;100590.06;10507307;28;20051;-71
2023/10/10 22:52:12;;;;;;;1.52;0.98;;;;;;;5.06;85.79;100575.16;10506162;28;20045;-71
2023/10/10 22:57:14;;;;;;;0.80;0.80;;;;;;;5.05;85.84;100568.88;10523833;22;20099;-92
2023/10/10 23:02:17;;;;;;;2.05;1.10;;;;;;;5.06;85.42;100561.53;10471266;28;20044;-94
2023/10/10 23:07:20;;;;;;;1.48;0.80;;;;;;;5.08;85.49;100540.34;10465976;28;20054;-94
2023/10/10 23:12:22;;;;;;;2.42;0.70;;;;;;;5.13;85.00;100535.81;10498523;28;20047;-94
2023/10/10 23:17:25;;;;;;;1.17;0.80;;;;;;;5.18;85.16;100526.09;10475067;28;20418;-94
2023/10/10 23:22:28;;;;;;;4.63;0.90;;;;;;;5.21;84.45;100523.72;10473887;28;20044;-93
2023/10/10 23:27:31;;;;;;;0.98;0.80;;;;;;;5.22;84.02;100524.53;10457540;28;20040;-94
2023/10/10 23:32:33;;;;;;;1.25;0.80;;;;;;;5.27;83.78;100513.72;10463023;28;21272;-94
2023/10/10 23:37:44;;;;;;;1.35;0.90;;;;;;;5.27;83.38;100511.81;10419142;28;20566;-93
2023/10/10 23:42:51;;;;;;;1.77;1.08;;;;;;;5.27;83.63;100511.81;10437997;28;20053;-93
2023/10/10 23:47:57;;;;;;;1.55;0.82;;;;;;;5.24;83.01;100492.47;10452532;28;20037;-93
2023/10/10 23:53:02;;;;;;;3.05;1.10;;;;;;;5.24;82.80;100489.75;10449949;28;20033;-94
2023/10/10 23:58:11;;;;;;;1.27;1.00;;;;;;;5.25;83.05;100485.94;10437490;28;20041;-94
